sensor_id;sensor_type;location;lat;lon;timestamp;P1;durP1;ratioP1;P2;durP2;ratioP2
20593;SDS011;10455;48.732;10.266;2023-08-08T00:02:14;1999.90;;;999.90;;
20593;SDS011;10455;48.732;10.266;2023-08-08T00:07:19;1999.90;;;999.90;;
20593;SDS011;10455;48.732;10.266;2023-08-08T00:12:21;1999.90;;;999.90;;
20593;SDS011;10455;48.732;10.266;2023-08-08T00:17:23;1999.90;;;999.90;;
20593;SDS011;10455;48.732;10.266;2023-08-08T00:22:26;1999.90;;;999.90;;
20593;SDS011;10455;48.732;10.266;2023-08-08T00:27:28;1999.90;;;999.90;;
20593;SDS011;10455;48.732;10.266;2023-08-08T00:32:30;1999.90;;;999.90;;
20593;SDS011;10455;48.732;10.266;2023-08-08T00:37:33;1999.90;;;999.90;;
20593;SDS011;10455;48.732;10.266;2023-08-08T00:42:35;1999.90;;;999.90;;
20593;SDS011;10455;48.732;10.266;2023-08-08T00:47:37;1999.90;;;999.90;;
20593;SDS011;10455;48.732;10.266;2023-08-08T00:52:40;1999.90;;;999.90;;
20593;SDS011;10455;48.732;10.266;2023-08-08T00:57:43;22.17;;;21.23;;
20593;SDS011;10455;48.732;10.266;2023-08-08T01:02:46;5.57;;;4.60;;
20593;SDS011;10455;48.732;10.266;2023-08-08T01:07:52;6.03;;;4.50;;
20593;SDS011;10455;48.732;10.266;2023-08-08T01:12:59;5.77;;;4.73;;
20593;SDS011;10455;48.732;10.266;2023-08-08T01:18:04;7.70;;;4.80;;
20593;SDS011;10455;48.732;10.266;2023-08-08T01:23:11;4.87;;;4.30;;
20593;SDS011;10455;48.732;10.266;2023-08-08T01:28:21;5.80;;;4.20;;
20593;SDS011;10455;48.732;10.266;2023-08-08T01:33:23;4.80;;;4.33;;
20593;SDS011;10455;48.732;10.266;2023-08-08T01:38:26;5.07;;;4.60;;
20593;SDS011;10455;48.732;10.266;2023-08-08T01:43:34;5.97;;;4.53;;
20593;SDS011;10455;48.732;10.266;2023-08-08T01:48:38;5.07;;;4.57;;
20593;SDS011;10455;48.732;10.266;2023-08-08T01:53:40;5.80;;;4.40;;
20593;SDS011;10455;48.732;10.266;2023-08-08T01:58:43;4.40;;;4.00;;
20593;SDS011;10455;48.732;10.266;2023-08-08T02:03:45;8.87;;;4.40;;
20593;SDS011;10455;48.732;10.266;2023-08-08T02:08:47;5.37;;;4.10;;
20593;SDS011;10455;48.732;10.266;2023-08-08T02:13:50;4.60;;;4.20;;
20593;SDS011;10455;48.732;10.266;2023-08-08T02:18:52;4.83;;;4.33;;
20593;SDS011;10455;48.732;10.266;2023-08-08T02:23:54;4.90;;;3.90;;
20593;SDS011;10455;48.732;10.266;2023-08-08T02:28:57;4.27;;;3.87;;
20593;SDS011;10455;48.732;10.266;2023-08-08T02:33:59;4.43;;;4.03;;
20593;SDS011;10455;48.732;10.266;2023-08-08T02:39:01;4.57;;;3.37;;
20593;SDS011;10455;48.732;10.266;2023-08-08T02:44:05;4.30;;;3.93;;
20593;SDS011;10455;48.732;10.266;2023-08-08T02:49:07;4.40;;;3.93;;
20593;SDS011;10455;48.732;10.266;2023-08-08T02:54:09;5.47;;;4.17;;
20593;SDS011;10455;48.732;10.266;2023-08-08T02:59:12;4.50;;;4.03;;
20593;SDS011;10455;48.732;10.266;2023-08-08T03:04:14;4.10;;;3.80;;
20593;SDS011;10455;48.732;10.266;2023-08-08T03:09:16;4.40;;;4.00;;
20593;SDS011;10455;48.732;10.266;2023-08-08T03:14:19;4.07;;;3.63;;
20593;SDS011;10455;48.732;10.266;2023-08-08T03:19:21;4.20;;;3.80;;
20593;SDS011;10455;48.732;10.266;2023-08-08T03:24:23;4.00;;;3.50;;
20593;SDS011;10455;48.732;10.266;2023-08-08T03:29:26;3.83;;;3.53;;
20593;SDS011;10455;48.732;10.266;2023-08-08T03:34:28;4.47;;;3.87;;
20593;SDS011;10455;48.732;10.266;2023-08-08T03:39:30;4.23;;;3.73;;
20593;SDS011;10455;48.732;10.266;2023-08-08T03:44:33;3.90;;;3.60;;
20593;SDS011;10455;48.732;10.266;2023-08-08T03:49:35;4.77;;;3.63;;
20593;SDS011;10455;48.732;10.266;2023-08-08T03:54:37;5.90;;;3.67;;
20593;SDS011;10455;48.732;10.266;2023-08-08T03:59:40;4.00;;;3.60;;
20593;SDS011;10455;48.732;10.266;2023-08-08T04:04:42;4.57;;;4.17;;
20593;SDS011;10455;48.732;10.266;2023-08-08T04:09:44;4.63;;;4.23;;
20593;SDS011;10455;48.732;10.266;2023-08-08T04:14:47;4.57;;;4.13;;
20593;SDS011;10455;48.732;10.266;2023-08-08T04:19:49;5.80;;;5.20;;
20593;SDS011;10455;48.732;10.266;2023-08-08T04:24:51;5.60;;;5.10;;
20593;SDS011;10455;48.732;10.266;2023-08-08T04:29:54;5.77;;;5.23;;
20593;SDS011;10455;48.732;10.266;2023-08-08T04:34:56;5.43;;;4.83;;
20593;SDS011;10455;48.732;10.266;2023-08-08T04:39:58;6.47;;;4.67;;
20593;SDS011;10455;48.732;10.266;2023-08-08T04:45:01;4.60;;;4.20;;
20593;SDS011;10455;48.732;10.266;2023-08-08T04:50:04;4.43;;;4.03;;
20593;SDS011;10455;48.732;10.266;2023-08-08T04:55:07;4.27;;;3.50;;
20593;SDS011;10455;48.732;10.266;2023-08-08T05:00:11;2.90;;;2.70;;
20593;SDS011;10455;48.732;10.266;2023-08-08T05:05:15;2.67;;;2.47;;
20593;SDS011;10455;48.732;10.266;2023-08-08T05:10:17;2.85;;;2.65;;
20593;SDS011;10455;48.732;10.266;2023-08-08T05:15:20;3.92;;;2.97;;
20593;SDS011;10455;48.732;10.266;2023-08-08T05:20:22;2.95;;;2.65;;
20593;SDS011;10455;48.732;10.266;2023-08-08T05:25:24;3.50;;;2.93;;
20593;SDS011;10455;48.732;10.266;2023-08-08T05:30:27;3.20;;;2.90;;
20593;SDS011;10455;48.732;10.266;2023-08-08T05:35:30;3.43;;;3.13;;
20593;SDS011;10455;48.732;10.266;2023-08-08T05:40:33;3.80;;;3.37;;
20593;SDS011;10455;48.732;10.266;2023-08-08T05:45:37;5.00;;;3.57;;
20593;SDS011;10455;48.732;10.266;2023-08-08T05:50:39;4.10;;;3.70;;
20593;SDS011;10455;48.732;10.266;2023-08-08T05:55:41;3.90;;;3.60;;
20593;SDS011;10455;48.732;10.266;2023-08-08T06:00:45;6.07;;;4.30;;
20593;SDS011;10455;48.732;10.266;2023-08-08T06:05:46;4.73;;;4.17;;
20593;SDS011;10455;48.732;10.266;2023-08-08T06:10:48;3.97;;;3.67;;
20593;SDS011;10455;48.732;10.266;2023-08-08T06:15:52;8.53;;;4.30;;
20593;SDS011;10455;48.732;10.266;2023-08-08T06:20:53;6.17;;;3.77;;
20593;SDS011;10455;48.732;10.266;2023-08-08T06:25:55;3.73;;;3.33;;
20593;SDS011;10455;48.732;10.266;2023-08-08T06:30:59;3.70;;;3.10;;
20593;SDS011;10455;48.732;10.266;2023-08-08T06:36:02;2.25;;;1.95;;
20593;SDS011;10455;48.732;10.266;2023-08-08T06:41:04;3.92;;;2.70;;
20593;SDS011;10455;48.732;10.266;2023-08-08T06:46:07;2.35;;;2.15;;
20593;SDS011;10455;48.732;10.266;2023-08-08T06:51:09;4.53;;;2.10;;
20593;SDS011;10455;48.732;10.266;2023-08-08T06:56:11;2.80;;;2.22;;
20593;SDS011;10455;48.732;10.266;2023-08-08T07:01:15;2.92;;;2.50;;
20593;SDS011;10455;48.732;10.266;2023-08-08T07:06:17;3.95;;;2.10;;
20593;SDS011;10455;48.732;10.266;2023-08-08T07:11:19;3.42;;;2.25;;
20593;SDS011;10455;48.732;10.266;2023-08-08T07:16:23;2.20;;;2.00;;
20593;SDS011;10455;48.732;10.266;2023-08-08T07:21:25;2.20;;;2.00;;
20593;SDS011;10455;48.732;10.266;2023-08-08T07:26:27;3.42;;;2.35;;
20593;SDS011;10455;48.732;10.266;2023-08-08T07:31:31;3.78;;;2.30;;
20593;SDS011;10455;48.732;10.266;2023-08-08T07:36:33;2.67;;;2.10;;
20593;SDS011;10455;48.732;10.266;2023-08-08T07:41:35;2.85;;;2.65;;
20593;SDS011;10455;48.732;10.266;2023-08-08T07:46:38;85.35;;;57.67;;
20593;SDS011;10455;48.732;10.266;2023-08-08T07:51:41;2.80;;;2.22;;
20593;SDS011;10455;48.732;10.266;2023-08-08T07:56:42;2.33;;;2.10;;
20593;SDS011;10455;48.732;10.266;2023-08-08T08:01:46;3.65;;;2.28;;
20593;SDS011;10455;48.732;10.266;2023-08-08T08:06:48;3.83;;;2.60;;
20593;SDS011;10455;48.732;10.266;2023-08-08T08:11:50;5.43;;;2.40;;
20593;SDS011;10455;48.732;10.266;2023-08-08T08:16:53;4.07;;;2.30;;
20593;SDS011;10455;48.732;10.266;2023-08-08T08:21:55;3.22;;;2.42;;
20593;SDS011;10455;48.732;10.266;2023-08-08T08:26:57;3.83;;;2.25;;
20593;SDS011;10455;48.732;10.266;2023-08-08T08:32:01;3.85;;;2.30;;
20593;SDS011;10455;48.732;10.266;2023-08-08T08:37:03;2.90;;;2.40;;
20593;SDS011;10455;48.732;10.266;2023-08-08T08:42:05;2.30;;;2.10;;
20593;SDS011;10455;48.732;10.266;2023-08-08T08:47:12;2.22;;;2.03;;
20593;SDS011;10455;48.732;10.266;2023-08-08T08:52:14;2.97;;;1.92;;
20593;SDS011;10455;48.732;10.266;2023-08-08T08:57:17;3.35;;;2.10;;
20593;SDS011;10455;48.732;10.266;2023-08-08T09:02:20;3.15;;;2.25;;
20593;SDS011;10455;48.732;10.266;2023-08-08T09:07:24;2.15;;;1.95;;
20593;SDS011;10455;48.732;10.266;2023-08-08T09:12:28;2.45;;;2.25;;
20593;SDS011;10455;48.732;10.266;2023-08-08T09:17:32;3.30;;;2.08;;
20593;SDS011;10455;48.732;10.266;2023-08-08T09:22:34;3.88;;;2.42;;
20593;SDS011;10455;48.732;10.266;2023-08-08T09:27:37;3.50;;;2.10;;
20593;SDS011;10455;48.732;10.266;2023-08-08T09:32:42;2.55;;;2.20;;
20593;SDS011;10455;48.732;10.266;2023-08-08T09:37:45;2.65;;;2.20;;
20593;SDS011;10455;48.732;10.266;2023-08-08T09:42:47;2.63;;;2.22;;
20593;SDS011;10455;48.732;10.266;2023-08-08T09:47:51;3.30;;;2.20;;
20593;SDS011;10455;48.732;10.266;2023-08-08T09:52:53;2.50;;;2.30;;
20593;SDS011;10455;48.732;10.266;2023-08-08T09:57:56;4.10;;;2.10;;
20593;SDS011;10455;48.732;10.266;2023-08-08T10:03:01;2.50;;;2.30;;
20593;SDS011;10455;48.732;10.266;2023-08-08T10:08:03;3.63;;;2.58;;
20593;SDS011;10455;48.732;10.266;2023-08-08T10:13:06;2.70;;;2.05;;
20593;SDS011;10455;48.732;10.266;2023-08-08T10:18:09;2.58;;;2.38;;
20593;SDS011;10455;48.732;10.266;2023-08-08T10:23:15;2.65;;;2.45;;
20593;SDS011;10455;48.732;10.266;2023-08-08T10:28:18;3.92;;;2.70;;
20593;SDS011;10455;48.732;10.266;2023-08-08T10:33:23;3.13;;;2.22;;
20593;SDS011;10455;48.732;10.266;2023-08-08T10:38:27;2.83;;;2.30;;
20593;SDS011;10455;48.732;10.266;2023-08-08T10:43:46;3.00;;;2.33;;
20593;SDS011;10455;48.732;10.266;2023-08-08T10:48:52;2.65;;;2.42;;
20593;SDS011;10455;48.732;10.266;2023-08-08T10:53:54;2.47;;;2.28;;
20593;SDS011;10455;48.732;10.266;2023-08-08T10:58:57;2.55;;;2.30;;
20593;SDS011;10455;48.732;10.266;2023-08-08T11:04:00;4.15;;;3.75;;
20593;SDS011;10455;48.732;10.266;2023-08-08T11:09:04;2.40;;;2.20;;
20593;SDS011;10455;48.732;10.266;2023-08-08T11:14:11;2.67;;;2.30;;
20593;SDS011;10455;48.732;10.266;2023-08-08T11:19:16;2.90;;;2.25;;
20593;SDS011;10455;48.732;10.266;2023-08-08T11:24:19;2.50;;;2.30;;
20593;SDS011;10455;48.732;10.266;2023-08-08T11:29:21;3.10;;;1.90;;
20593;SDS011;10455;48.732;10.266;2023-08-08T11:34:25;3.50;;;2.90;;
20593;SDS011;10455;48.732;10.266;2023-08-08T11:39:27;2.55;;;2.35;;
20593;SDS011;10455;48.732;10.266;2023-08-08T11:44:30;2.40;;;2.00;;
20593;SDS011;10455;48.732;10.266;2023-08-08T11:49:39;2.67;;;2.47;;
20593;SDS011;10455;48.732;10.266;2023-08-08T11:54:41;2.47;;;2.28;;
20593;SDS011;10455;48.732;10.266;2023-08-08T11:59:43;2.53;;;2.03;;
20593;SDS011;10455;48.732;10.266;2023-08-08T12:04:46;3.75;;;2.00;;
20593;SDS011;10455;48.732;10.266;2023-08-08T12:09:48;5.40;;;2.20;;
20593;SDS011;10455;48.732;10.266;2023-08-08T12:14:51;2.17;;;2.00;;
20593;SDS011;10455;48.732;10.266;2023-08-08T12:19:59;2.88;;;2.30;;
20593;SDS011;10455;48.732;10.266;2023-08-08T12:25:02;2.30;;;2.10;;
20593;SDS011;10455;48.732;10.266;2023-08-08T12:30:05;2.22;;;1.95;;
20593;SDS011;10455;48.732;10.266;2023-08-08T12:35:09;2.33;;;2.00;;
20593;SDS011;10455;48.732;10.266;2023-08-08T12:40:11;2.67;;;2.20;;
20593;SDS011;10455;48.732;10.266;2023-08-08T12:45:13;3.90;;;2.10;;
20593;SDS011;10455;48.732;10.266;2023-08-08T12:50:16;2.30;;;2.08;;
20593;SDS011;10455;48.732;10.266;2023-08-08T12:55:18;2.03;;;1.80;;
20593;SDS011;10455;48.732;10.266;2023-08-08T13:00:20;2.83;;;1.75;;
20593;SDS011;10455;48.732;10.266;2023-08-08T13:05:25;2.17;;;2.08;;
20593;SDS011;10455;48.732;10.266;2023-08-08T13:10:26;2.20;;;2.00;;
20593;SDS011;10455;48.732;10.266;2023-08-08T13:15:29;2.28;;;2.13;;
20593;SDS011;10455;48.732;10.266;2023-08-08T13:20:32;2.33;;;1.95;;
20593;SDS011;10455;48.732;10.266;2023-08-08T13:25:34;2.25;;;2.00;;
20593;SDS011;10455;48.732;10.266;2023-08-08T13:30:36;3.67;;;2.15;;
20593;SDS011;10455;48.732;10.266;2023-08-08T13:35:39;2.30;;;2.10;;
20593;SDS011;10455;48.732;10.266;2023-08-08T13:40:41;2.08;;;1.90;;
20593;SDS011;10455;48.732;10.266;2023-08-08T13:45:43;2.17;;;2.00;;
20593;SDS011;10455;48.732;10.266;2023-08-08T13:50:46;2.40;;;2.20;;
20593;SDS011;10455;48.732;10.266;2023-08-08T13:55:48;3.88;;;1.92;;
20593;SDS011;10455;48.732;10.266;2023-08-08T14:00:50;3.58;;;1.90;;
20593;SDS011;10455;48.732;10.266;2023-08-08T14:05:53;4.22;;;3.42;;
20593;SDS011;10455;48.732;10.266;2023-08-08T14:10:55;2.30;;;1.90;;
20593;SDS011;10455;48.732;10.266;2023-08-08T14:15:57;2.33;;;1.98;;
20593;SDS011;10455;48.732;10.266;2023-08-08T14:21:00;4.65;;;2.13;;
20593;SDS011;10455;48.732;10.266;2023-08-08T14:26:04;3.10;;;1.98;;
20593;SDS011;10455;48.732;10.266;2023-08-08T14:31:06;5.03;;;2.08;;
20593;SDS011;10455;48.732;10.266;2023-08-08T14:36:09;3.42;;;2.35;;
20593;SDS011;10455;48.732;10.266;2023-08-08T14:41:11;2.50;;;2.00;;
20593;SDS011;10455;48.732;10.266;2023-08-08T14:46:13;3.92;;;2.22;;
20593;SDS011;10455;48.732;10.266;2023-08-08T14:51:17;3.90;;;2.08;;
20593;SDS011;10455;48.732;10.266;2023-08-08T14:56:19;2.40;;;2.20;;
20593;SDS011;10455;48.732;10.266;2023-08-08T15:01:21;3.90;;;2.13;;
20593;SDS011;10455;48.732;10.266;2023-08-08T15:06:25;2.40;;;2.03;;
20593;SDS011;10455;48.732;10.266;2023-08-08T15:11:26;2.53;;;2.13;;
20593;SDS011;10455;48.732;10.266;2023-08-08T15:16:29;2.50;;;2.30;;
20593;SDS011;10455;48.732;10.266;2023-08-08T15:21:32;3.55;;;2.28;;
20593;SDS011;10455;48.732;10.266;2023-08-08T15:26:34;4.53;;;2.70;;
20593;SDS011;10455;48.732;10.266;2023-08-08T15:31:36;3.92;;;2.20;;
20593;SDS011;10455;48.732;10.266;2023-08-08T15:36:39;4.85;;;2.60;;
20593;SDS011;10455;48.732;10.266;2023-08-08T15:41:41;2.58;;;2.05;;
20593;SDS011;10455;48.732;10.266;2023-08-08T15:46:43;3.40;;;2.03;;
20593;SDS011;10455;48.732;10.266;2023-08-08T15:51:47;2.33;;;2.13;;
20593;SDS011;10455;48.732;10.266;2023-08-08T15:56:48;2.50;;;2.30;;
20593;SDS011;10455;48.732;10.266;2023-08-08T16:01:51;4.10;;;2.30;;
20593;SDS011;10455;48.732;10.266;2023-08-08T16:06:54;2.67;;;2.15;;
20593;SDS011;10455;48.732;10.266;2023-08-08T16:11:56;2.63;;;2.30;;
20593;SDS011;10455;48.732;10.266;2023-08-08T16:16:59;2.63;;;2.42;;
20593;SDS011;10455;48.732;10.266;2023-08-08T16:22:04;3.30;;;2.30;;
20593;SDS011;10455;48.732;10.266;2023-08-08T16:27:05;3.20;;;2.42;;
20593;SDS011;10455;48.732;10.266;2023-08-08T16:32:07;2.40;;;2.20;;
20593;SDS011;10455;48.732;10.266;2023-08-08T16:37:10;4.13;;;2.50;;
20593;SDS011;10455;48.732;10.266;2023-08-08T16:42:13;3.70;;;2.15;;
20593;SDS011;10455;48.732;10.266;2023-08-08T16:47:15;2.30;;;2.10;;
20593;SDS011;10455;48.732;10.266;2023-08-08T16:52:18;2.30;;;2.10;;
20593;SDS011;10455;48.732;10.266;2023-08-08T16:57:20;4.43;;;2.40;;
20593;SDS011;10455;48.732;10.266;2023-08-08T17:02:21;2.30;;;2.10;;
20593;SDS011;10455;48.732;10.266;2023-08-08T17:07:25;3.15;;;2.28;;
20593;SDS011;10455;48.732;10.266;2023-08-08T17:12:29;5.05;;;2.38;;
20593;SDS011;10455;48.732;10.266;2023-08-08T17:17:30;3.60;;;2.40;;
20593;SDS011;10455;48.732;10.266;2023-08-08T17:22:34;2.80;;;2.20;;
20593;SDS011;10455;48.732;10.266;2023-08-08T17:27:36;3.33;;;2.42;;
20593;SDS011;10455;48.732;10.266;2023-08-08T17:32:38;2.50;;;2.10;;
20593;SDS011;10455;48.732;10.266;2023-08-08T17:37:41;4.40;;;2.83;;
20593;SDS011;10455;48.732;10.266;2023-08-08T17:42:43;4.45;;;2.50;;
20593;SDS011;10455;48.732;10.266;2023-08-08T17:47:45;2.70;;;2.33;;
20593;SDS011;10455;48.732;10.266;2023-08-08T17:52:48;5.07;;;2.78;;
20593;SDS011;10455;48.732;10.266;2023-08-08T17:57:50;2.70;;;2.50;;
20593;SDS011;10455;48.732;10.266;2023-08-08T18:02:52;2.47;;;2.28;;
20593;SDS011;10455;48.732;10.266;2023-08-08T18:07:57;4.47;;;2.42;;
20593;SDS011;10455;48.732;10.266;2023-08-08T18:12:58;2.53;;;2.33;;
20593;SDS011;10455;48.732;10.266;2023-08-08T18:18:00;3.30;;;2.40;;
20593;SDS011;10455;48.732;10.266;2023-08-08T18:23:04;4.65;;;2.88;;
20593;SDS011;10455;48.732;10.266;2023-08-08T18:28:07;3.03;;;2.60;;
20593;SDS011;10455;48.732;10.266;2023-08-08T18:33:09;5.82;;;2.60;;
20593;SDS011;10455;48.732;10.266;2023-08-08T18:38:14;3.55;;;2.75;;
20593;SDS011;10455;48.732;10.266;2023-08-08T18:43:16;3.13;;;2.80;;
20593;SDS011;10455;48.732;10.266;2023-08-08T18:48:18;3.30;;;2.95;;
20593;SDS011;10455;48.732;10.266;2023-08-08T18:53:22;4.25;;;2.75;;
20593;SDS011;10455;48.732;10.266;2023-08-08T18:58:23;3.38;;;2.53;;
20593;SDS011;10455;48.732;10.266;2023-08-08T19:03:25;4.65;;;2.50;;
20593;SDS011;10455;48.732;10.266;2023-08-08T19:08:28;2.85;;;2.58;;
20593;SDS011;10455;48.732;10.266;2023-08-08T19:13:30;3.80;;;2.90;;
20593;SDS011;10455;48.732;10.266;2023-08-08T19:18:32;3.42;;;2.80;;
20593;SDS011;10455;48.732;10.266;2023-08-08T19:23:36;3.35;;;2.80;;
20593;SDS011;10455;48.732;10.266;2023-08-08T19:28:38;13.52;;;12.45;;
20593;SDS011;10455;48.732;10.266;2023-08-08T19:33:39;3.85;;;3.55;;
20593;SDS011;10455;48.732;10.266;2023-08-08T19:38:43;4.28;;;3.28;;
20593;SDS011;10455;48.732;10.266;2023-08-08T19:43:46;5.07;;;2.75;;
20593;SDS011;10455;48.732;10.266;2023-08-08T19:48:48;3.20;;;2.90;;
20593;SDS011;10455;48.732;10.266;2023-08-08T19:53:51;3.45;;;2.92;;
20593;SDS011;10455;48.732;10.266;2023-08-08T19:58:53;3.47;;;3.17;;
20593;SDS011;10455;48.732;10.266;2023-08-08T20:03:55;3.95;;;3.50;;
20593;SDS011;10455;48.732;10.266;2023-08-08T20:08:58;6.10;;;3.08;;
20593;SDS011;10455;48.732;10.266;2023-08-08T20:14:00;4.13;;;3.38;;
20593;SDS011;10455;48.732;10.266;2023-08-08T20:19:02;3.38;;;3.08;;
20593;SDS011;10455;48.732;10.266;2023-08-08T20:24:06;5.85;;;3.53;;
20593;SDS011;10455;48.732;10.266;2023-08-08T20:29:12;3.80;;;3.20;;
20593;SDS011;10455;48.732;10.266;2023-08-08T20:34:14;4.50;;;3.60;;
20593;SDS011;10455;48.732;10.266;2023-08-08T20:39:17;4.13;;;3.72;;
20593;SDS011;10455;48.732;10.266;2023-08-08T20:44:19;4.38;;;3.85;;
20593;SDS011;10455;48.732;10.266;2023-08-08T20:49:21;3.95;;;3.60;;
20593;SDS011;10455;48.732;10.266;2023-08-08T20:54:24;57.67;;;12.00;;
20593;SDS011;10455;48.732;10.266;2023-08-08T20:59:26;2.60;;;2.33;;
20593;SDS011;10455;48.732;10.266;2023-08-08T21:04:31;2.72;;;2.53;;
20593;SDS011;10455;48.732;10.266;2023-08-08T21:09:34;2.85;;;2.53;;
20593;SDS011;10455;48.732;10.266;2023-08-08T21:14:36;2.40;;;2.30;;
20593;SDS011;10455;48.732;10.266;2023-08-08T21:19:38;2.45;;;2.30;;
20593;SDS011;10455;48.732;10.266;2023-08-08T21:24:41;3.20;;;2.83;;
20593;SDS011;10455;48.732;10.266;2023-08-08T21:29:43;3.85;;;3.33;;
20593;SDS011;10455;48.732;10.266;2023-08-08T21:34:45;162.38;;;82.95;;
20593;SDS011;10455;48.732;10.266;2023-08-08T21:39:49;7.22;;;3.42;;
20593;SDS011;10455;48.732;10.266;2023-08-08T21:44:50;3.53;;;3.22;;
20593;SDS011;10455;48.732;10.266;2023-08-08T21:49:52;3.60;;;3.30;;
20593;SDS011;10455;48.732;10.266;2023-08-08T21:54:56;5.00;;;3.60;;
20593;SDS011;10455;48.732;10.266;2023-08-08T21:59:57;4.53;;;3.13;;
20593;SDS011;10455;48.732;10.266;2023-08-08T22:04:59;5.03;;;3.75;;
20593;SDS011;10455;48.732;10.266;2023-08-08T22:10:03;1500.78;;;750.70;;
20593;SDS011;10455;48.732;10.266;2023-08-08T22:15:06;2.20;;;2.00;;
20593;SDS011;10455;48.732;10.266;2023-08-08T22:20:09;2.28;;;2.10;;
20593;SDS011;10455;48.732;10.266;2023-08-08T22:25:13;2.80;;;2.60;;
20593;SDS011;10455;48.732;10.266;2023-08-08T22:30:17;2.78;;;2.58;;
20593;SDS011;10455;48.732;10.266;2023-08-08T22:35:19;3.95;;;2.83;;
20593;SDS011;10455;48.732;10.266;2023-08-08T22:40:23;3.33;;;2.70;;
20593;SDS011;10455;48.732;10.266;2023-08-08T22:45:24;3.15;;;2.83;;
20593;SDS011;10455;48.732;10.266;2023-08-08T22:50:27;4.55;;;3.17;;
20593;SDS011;10455;48.732;10.266;2023-08-08T22:55:31;3.50;;;2.50;;
20593;SDS011;10455;48.732;10.266;2023-08-08T23:00:32;3.28;;;2.80;;
20593;SDS011;10455;48.732;10.266;2023-08-08T23:05:35;3.78;;;2.95;;
20593;SDS011;10455;48.732;10.266;2023-08-08T23:10:38;3.10;;;2.80;;
20593;SDS011;10455;48.732;10.266;2023-08-08T23:20:50;2.83;;;2.50;;
20593;SDS011;10455;48.732;10.266;2023-08-08T23:25:53;3.40;;;2.70;;
20593;SDS011;10455;48.732;10.266;2023-08-08T23:30:55;2.60;;;2.40;;
20593;SDS011;10455;48.732;10.266;2023-08-08T23:35:57;3.55;;;3.20;;
20593;SDS011;10455;48.732;10.266;2023-08-08T23:41:01;3.92;;;2.45;;
20593;SDS011;10455;48.732;10.266;2023-08-08T23:51:09;3.10;;;2.80;;
20593;SDS011;10455;48.732;10.266;2023-08-08T23:56:12;2.83;;;2.60;;
